Time;durP1;ratioP1;P1;durP2;ratioP2;P2;SDS_P1;SDS_P2;PMS_P1;PMS_P2;Temp;Humidity;BMP_temperature;BMP_pressure;BME280_temperature;BME280_humidity;BME280_pressure;Samples;Min_cycle;Max_cycle;Signal;HPM_P1;HPM_P2
2024/01/13 00:01:43;;;;;;;505.45;156.02;;;;;;;4.66;62.32;101919.47;5033176;28;20444;-39
2024/01/13 00:04:10;;;;;;;512.23;149.63;;;;;;;3.93;63.56;101919.53;5038229;28;20584;-39
2024/01/13 00:06:36;;;;;;;400.05;190.48;;;;;;;3.91;64.26;101911.72;5035392;28;19921;-39
2024/01/13 00:09:01;;;;;;;504.17;154.17;;;;;;;3.90;64.47;101909.97;5033640;28;20789;-39
2024/01/13 00:11:27;;;;;;;511.85;149.20;;;;;;;4.21;63.95;101907.03;5037502;28;20437;-39
2024/01/13 00:13:52;;;;;;;394.77;174.37;;;;;;;4.04;64.68;101898.53;5040581;28;20036;-40
2024/01/13 00:16:17;;;;;;;503.00;149.20;;;;;;;3.96;64.79;101899.50;5046093;28;20807;-40
2024/01/13 00:18:43;;;;;;;385.57;170.13;;;;;;;3.82;64.71;101906.63;5038112;28;20040;-39
2024/01/13 00:21:08;;;;;;;499.60;149.90;;;;;;;3.92;64.84;101908.22;5042495;28;20429;-39
2024/01/13 00:23:34;;;;;;;509.40;148.80;;;;;;;4.14;64.34;101908.00;5041367;28;20401;-39
2024/01/13 00:25:59;;;;;;;511.60;150.60;;;;;;;4.03;63.78;101905.50;5030304;28;20457;-39
2024/01/13 00:28:25;;;;;;;396.17;172.93;;;;;;;3.92;64.26;101903.03;5041163;28;20793;-39
2024/01/13 00:30:50;;;;;;;504.50;155.30;;;;;;;4.08;64.46;101897.63;5014114;28;20488;-39
2024/01/13 00:33:15;;;;;;;511.40;151.93;;;;;;;4.01;64.31;101898.59;5032822;28;20513;-39
2024/01/13 00:35:41;;;;;;;514.80;149.65;;;;;;;4.24;63.97;101891.34;5034106;28;20405;-39
2024/01/13 00:38:06;;;;;;;514.10;151.03;;;;;;;3.94;64.31;101880.44;5022675;28;20405;-39
2024/01/13 00:40:32;;;;;;;515.27;155.37;;;;;;;4.13;63.37;101888.03;5028402;28;20443;-39
2024/01/13 00:42:59;;;;;;;518.08;158.40;;;;;;;4.43;62.84;101881.53;5024982;28;20508;-39
2024/01/13 00:45:24;;;;;;;401.57;177.20;;;;;;;4.24;63.32;101882.66;5036311;28;20403;-39
2024/01/13 00:47:50;;;;;;;502.90;151.25;;;;;;;4.27;63.31;101880.91;5035898;28;20403;-39
2024/01/13 00:50:15;;;;;;;517.20;161.10;;;;;;;4.22;63.10;101874.88;5032576;28;20411;-39
2024/01/13 00:52:41;;;;;;;516.17;149.57;;;;;;;4.35;63.47;101877.31;5018382;28;20494;-39
2024/01/13 00:55:06;;;;;;;518.60;150.00;;;;;;;4.23;63.96;101875.75;5032474;28;20440;-38
2024/01/13 00:57:32;;;;;;;395.45;168.25;;;;;;;4.17;63.59;101881.88;5022883;28;20333;-39
2024/01/13 00:59:57;;;;;;;503.80;151.43;;;;;;;3.89;64.66;101870.94;5034621;28;20501;-39
2024/01/13 01:02:22;;;;;;;512.70;153.80;;;;;;;4.34;63.19;101872.97;5036420;28;20413;-39
2024/01/13 01:04:48;;;;;;;395.80;178.00;;;;;;;3.56;64.33;101873.03;5037365;28;20288;-39
2024/01/13 01:07:14;;;;;;;502.15;152.25;;;;;;;4.14;63.77;101857.63;5037978;28;20412;-39
2024/01/13 01:09:39;;;;;;;386.23;176.03;;;;;;;4.03;64.02;101857.75;5036583;28;20023;-38
2024/01/13 01:12:05;;;;;;;499.45;150.30;;;;;;;4.15;63.79;101862.81;5015331;28;20651;-39
2024/01/13 01:14:30;;;;;;;508.90;149.95;;;;;;;4.04;64.08;101856.88;5038305;28;20459;-39
2024/01/13 01:16:56;;;;;;;509.40;149.93;;;;;;;4.12;63.51;101855.03;5035726;28;20876;-39
2024/01/13 01:19:21;;;;;;;388.63;174.90;;;;;;;4.15;63.75;101851.53;5047589;28;20021;-39
2024/01/13 01:21:46;;;;;;;499.50;150.25;;;;;;;4.09;63.79;101837.69;5046065;28;20768;-39
2024/01/13 01:24:12;;;;;;;502.80;152.70;;;;;;;4.04;63.65;101838.63;5043681;28;20540;-39
2024/01/13 01:26:37;;;;;;;509.75;148.30;;;;;;;4.05;63.56;101840.38;5042775;28;20891;-39
2024/01/13 01:29:02;;;;;;;506.58;145.75;;;;;;;3.81;63.99;101850.22;5045279;28;20482;-39
2024/01/13 01:31:28;;;;;;;508.30;147.90;;;;;;;3.91;64.20;101840.56;5043846;28;20949;-39
2024/01/13 01:33:53;;;;;;;509.30;150.00;;;;;;;4.01;63.91;101846.50;5044239;28;20444;-39
2024/01/13 01:36:18;;;;;;;509.10;148.40;;;;;;;3.91;64.10;101849.22;5044771;28;20387;-39
2024/01/13 01:38:44;;;;;;;512.72;158.73;;;;;;;3.65;64.68;101842.56;5041833;28;20915;-39
2024/01/13 01:41:13;;;;;;;401.95;176.55;;;;;;;3.87;63.85;101825.84;5041483;28;20048;-39
2024/01/13 01:43:39;;;;;;;496.37;149.60;;;;;;;3.85;64.01;101823.25;5043044;28;20920;-39
2024/01/13 01:46:06;;;;;;;499.80;144.70;;;;;;;4.19;63.52;101830.63;5043864;28;20410;-39
2024/01/13 01:48:37;;;;;;;503.75;149.43;;;;;;;4.18;63.48;101835.88;5042259;28;20408;-40
2024/01/13 01:51:04;;;;;;;508.10;150.40;;;;;;;4.10;62.84;101830.75;5040071;28;20405;-39
2024/01/13 01:53:29;;;;;;;502.63;145.87;;;;;;;4.08;63.34;101819.50;5041977;28;20474;-39
2024/01/13 01:55:55;;;;;;;384.73;164.80;;;;;;;4.15;63.27;101822.88;5044302;28;20328;-39
2024/01/13 01:58:21;;;;;;;495.30;153.65;;;;;;;4.00;62.86;101818.75;5038544;28;20434;-39
2024/01/13 02:00:48;;;;;;;500.30;149.95;;;;;;;4.00;63.45;101816.13;5037868;28;20448;-39
2024/01/13 02:03:13;;;;;;;501.73;148.50;;;;;;;4.51;62.14;101810.22;5040535;28;20409;-39
2024/01/13 02:05:39;;;;;;;388.83;186.80;;;;;;;4.07;62.72;101809.94;5031050;28;20029;-40
2024/01/13 02:08:06;;;;;;;497.40;163.40;;;;;;;4.33;62.28;101806.09;5018726;28;20501;-39
2024/01/13 02:10:32;;;;;;;500.00;154.50;;;;;;;4.15;62.89;101802.03;5019166;28;20413;-38
2024/01/13 02:12:58;;;;;;;501.60;151.50;;;;;;;4.19;62.72;101796.75;5013273;28;20419;-39
2024/01/13 02:15:24;;;;;;;502.30;149.87;;;;;;;4.33;62.76;101806.09;5034837;28;20489;-39
2024/01/13 02:17:49;;;;;;;501.17;148.43;;;;;;;4.10;63.06;101807.31;5041112;28;20533;-39
2024/01/13 02:20:14;;;;;;;503.20;147.90;;;;;;;4.26;63.07;101802.72;5041977;28;20453;-39
2024/01/13 02:22:40;;;;;;;505.35;148.35;;;;;;;4.32;62.37;101797.44;5034568;28;20452;-39
2024/01/13 02:25:07;;;;;;;506.00;148.63;;;;;;;4.49;62.13;101798.94;5041528;28;20534;-39
2024/01/13 02:27:32;;;;;;;503.85;145.55;;;;;;;4.46;62.22;101791.16;5039770;28;20539;-39
2024/01/13 02:29:57;;;;;;;507.30;148.45;;;;;;;4.38;62.66;101786.94;5039075;28;20433;-39
2024/01/13 02:32:23;;;;;;;506.75;150.50;;;;;;;4.54;62.38;101777.13;5039896;28;20402;-39
2024/01/13 02:34:48;;;;;;;502.60;144.70;;;;;;;4.70;61.98;101774.28;5042198;28;20408;-39
2024/01/13 02:37:13;;;;;;;393.80;173.97;;;;;;;4.62;61.73;101765.69;5039996;28;22792;-39
2024/01/13 02:39:39;;;;;;;493.80;150.00;;;;;;;4.57;62.18;101765.78;5040186;28;20803;-39
2024/01/13 02:42:05;;;;;;;502.45;155.95;;;;;;;4.51;62.02;101763.28;5034425;28;20986;-39
2024/01/13 02:44:30;;;;;;;499.70;148.65;;;;;;;4.75;61.74;101750.72;5008265;28;20419;-39
2024/01/13 02:46:56;;;;;;;497.75;157.10;;;;;;;4.85;61.34;101745.34;5039940;28;20905;-39
2024/01/13 02:49:21;;;;;;;493.50;154.80;;;;;;;4.46;62.14;101742.53;5039255;28;20452;-39
2024/01/13 02:51:47;;;;;;;496.05;159.80;;;;;;;4.75;62.01;101732.47;5038717;28;20438;-39
2024/01/13 02:54:12;;;;;;;507.63;152.67;;;;;;;4.57;62.28;101718.84;5042209;28;20446;-39
2024/01/13 02:56:38;;;;;;;501.35;148.70;;;;;;;4.33;63.03;101722.72;5040405;28;20449;-39
2024/01/13 02:59:03;;;;;;;498.70;156.00;;;;;;;4.57;62.09;101713.66;5040704;28;20439;-39
2024/01/13 03:01:31;;;;;;;505.93;153.17;;;;;;;4.68;62.26;101716.06;5039731;28;20425;-39
2024/01/13 03:03:57;;;;;;;391.05;174.95;;;;;;;4.74;61.83;101708.16;5037847;28;20318;-39
2024/01/13 03:06:25;;;;;;;491.70;154.45;;;;;;;4.64;61.69;101703.97;5038064;28;20780;-39
2024/01/13 03:08:51;;;;;;;497.02;146.20;;;;;;;4.67;61.91;101706.53;5040519;28;20415;-39
2024/01/13 03:11:17;;;;;;;500.70;147.75;;;;;;;4.41;62.38;101702.63;5036227;28;20396;-39
2024/01/13 03:13:46;;;;;;;500.60;151.40;;;;;;;4.47;62.59;101710.31;5032061;28;20409;-39
2024/01/13 03:16:12;;;;;;;498.73;153.90;;;;;;;4.42;62.51;101715.63;5030979;28;20439;-40
2024/01/13 03:18:37;;;;;;;500.57;151.70;;;;;;;4.29;62.91;101708.03;5027811;28;21167;-39
2024/01/13 03:21:04;;;;;;;502.65;156.45;;;;;;;4.21;62.88;101706.41;5037979;28;20431;-39
2024/01/13 03:23:30;;;;;;;498.55;149.30;;;;;;;4.42;62.47;101693.94;5038840;28;20503;-39
2024/01/13 03:25:56;;;;;;;500.70;155.00;;;;;;;4.38;62.77;101694.84;5032309;28;20414;-39
2024/01/13 03:28:22;;;;;;;501.50;154.90;;;;;;;4.41;62.82;101692.22;5031825;28;20409;-39
2024/01/13 03:30:48;;;;;;;384.30;184.53;;;;;;;4.65;62.32;101684.84;5015697;28;19925;-39
2024/01/13 03:33:14;;;;;;;469.00;164.10;;;;;;;4.69;62.21;101670.88;5031675;28;21282;-39
2024/01/13 03:35:40;;;;;;;473.50;156.00;;;;;;;4.56;62.63;101683.25;5032261;28;20417;-39
2024/01/13 03:38:05;;;;;;;479.10;165.10;;;;;;;4.70;62.20;101680.41;5028716;28;20418;-39
2024/01/13 03:40:31;;;;;;;474.70;153.77;;;;;;;4.72;62.27;101668.22;5018434;28;20401;-40
2024/01/13 03:42:57;;;;;;;479.15;152.85;;;;;;;4.91;61.93;101663.50;5020930;28;20799;-39
2024/01/13 03:45:22;;;;;;;478.80;154.10;;;;;;;4.79;61.94;101653.31;5042385;28;20497;-39
2024/01/13 03:47:48;;;;;;;497.83;154.68;;;;;;;5.01;61.43;101641.56;5034198;28;20420;-39
2024/01/13 03:50:13;;;;;;;498.23;156.03;;;;;;;5.26;60.83;101640.19;5038274;28;20453;-39
2024/01/13 03:52:39;;;;;;;496.60;147.80;;;;;;;5.12;61.48;101649.16;5038578;28;20769;-39
2024/01/13 03:55:05;;;;;;;501.10;151.70;;;;;;;5.03;61.38;101649.38;5042893;28;20501;-40
2024/01/13 03:57:30;;;;;;;500.90;151.87;;;;;;;4.80;62.86;101658.47;5039520;28;20945;-40
2024/01/13 03:59:55;;;;;;;500.60;148.90;;;;;;;5.02;61.83;101663.31;5038669;28;20439;-39
2024/01/13 04:02:21;;;;;;;503.30;159.73;;;;;;;4.71;62.54;101656.06;5036294;28;20413;-39
2024/01/13 04:04:47;;;;;;;499.70;152.70;;;;;;;5.24;61.88;101655.03;5037995;28;20426;-39
2024/01/13 04:07:12;;;;;;;383.55;180.50;;;;;;;5.21;61.29;101655.09;5038377;28;20511;-39
2024/01/13 04:09:39;;;;;;;485.90;157.15;;;;;;;5.21;61.43;101653.34;5037423;28;20444;-39
2024/01/13 04:12:05;;;;;;;364.35;175.80;;;;;;;5.28;61.61;101649.72;5038335;28;20401;-39
2024/01/13 04:14:31;;;;;;;476.70;155.15;;;;;;;5.18;61.61;101648.19;5038862;28;20418;-39
2024/01/13 04:16:58;;;;;;;488.50;158.10;;;;;;;5.08;62.47;101641.44;5029994;28;20429;-39
2024/01/13 04:19:24;;;;;;;490.70;158.67;;;;;;;5.04;62.35;101640.66;5033913;28;21039;-39
2024/01/13 04:21:49;;;;;;;488.50;152.07;;;;;;;5.35;61.87;101640.03;5036847;28;20493;-40
2024/01/13 04:24:14;;;;;;;493.17;165.17;;;;;;;5.11;62.32;101629.19;5033838;28;20421;-39
2024/01/13 04:26:40;;;;;;;487.40;163.55;;;;;;;5.10;62.63;101630.06;5015386;28;20441;-39
2024/01/13 04:29:05;;;;;;;356.00;168.88;;;;;;;5.25;62.59;101617.59;5042900;28;20075;-38
2024/01/13 04:31:31;;;;;;;469.90;158.80;;;;;;;5.23;62.60;101627.22;5040062;28;20441;-39
2024/01/13 04:33:56;;;;;;;483.85;153.40;;;;;;;5.35;61.57;101621.75;5037192;28;20820;-38
2024/01/13 04:36:22;;;;;;;489.80;161.30;;;;;;;5.42;61.95;101615.47;5034907;28;20405;-39
2024/01/13 04:38:47;;;;;;;489.97;160.33;;;;;;;5.37;62.71;101621.72;5017446;28;20930;-39
2024/01/13 04:41:13;;;;;;;492.60;164.15;;;;;;;5.47;62.69;101612.78;5032016;28;20919;-39
2024/01/13 04:43:38;;;;;;;490.10;153.60;;;;;;;5.53;62.41;101606.53;5036729;28;20442;-39
2024/01/13 04:46:06;;;;;;;492.20;152.85;;;;;;;5.41;62.62;101598.09;5037208;28;20407;-39
2024/01/13 04:48:31;;;;;;;492.50;154.80;;;;;;;5.23;63.61;101603.72;5039392;28;20424;-40
2024/01/13 04:50:56;;;;;;;362.85;172.25;;;;;;;5.13;63.83;101600.47;5040134;28;20051;-39
2024/01/13 04:53:22;;;;;;;476.80;155.70;;;;;;;5.16;63.66;101598.66;5046299;28;20455;-39
2024/01/13 04:55:47;;;;;;;484.93;157.43;;;;;;;5.19;63.63;101593.38;5042441;28;20397;-39
2024/01/13 04:58:13;;;;;;;486.30;158.47;;;;;;;5.18;63.89;101586.44;5038058;28;20482;-39
2024/01/13 05:00:38;;;;;;;488.50;155.30;;;;;;;5.36;63.76;101586.06;5043416;28;20406;-39
2024/01/13 05:03:04;;;;;;;487.90;160.77;;;;;;;5.21;63.95;101579.44;5039446;28;20907;-39
2024/01/13 05:05:30;;;;;;;489.45;160.60;;;;;;;5.14;65.01;101574.34;5038507;28;20406;-39
2024/01/13 05:07:56;;;;;;;487.65;156.30;;;;;;;5.34;64.30;101568.69;5044821;28;20418;-39
2024/01/13 05:10:22;;;;;;;489.90;161.35;;;;;;;5.34;63.57;101576.50;5040183;28;20397;-39
2024/01/13 05:12:47;;;;;;;489.90;159.67;;;;;;;5.06;64.14;101575.41;5039613;28;20499;-40
2024/01/13 05:15:13;;;;;;;489.00;159.30;;;;;;;5.08;64.78;101577.06;5036009;28;20501;-40
2024/01/13 05:17:38;;;;;;;486.70;153.83;;;;;;;5.12;64.96;101583.94;5039029;28;20444;-39
2024/01/13 05:20:05;;;;;;;488.60;155.07;;;;;;;5.15;64.73;101580.41;5022719;28;20416;-39
2024/01/13 05:22:30;;;;;;;488.85;158.45;;;;;;;5.14;64.85;101576.94;5042464;28;20893;-39
2024/01/13 05:24:56;;;;;;;488.00;153.00;;;;;;;5.25;64.28;101566.28;5041784;28;20413;-39
2024/01/13 05:27:21;;;;;;;359.65;166.65;;;;;;;5.34;64.55;101565.22;5041838;28;20528;-39
2024/01/13 05:29:47;;;;;;;474.75;157.70;;;;;;;5.05;65.35;101577.16;5037013;28;20444;-39
2024/01/13 05:32:12;;;;;;;488.80;170.95;;;;;;;5.14;65.05;101557.84;5037389;28;20457;-39
2024/01/13 05:34:39;;;;;;;484.77;158.10;;;;;;;4.60;66.31;101567.63;5039938;28;20411;-39
2024/01/13 05:37:05;;;;;;;486.30;159.35;;;;;;;4.82;65.84;101567.19;5038470;28;20448;-39
2024/01/13 05:39:30;;;;;;;482.90;155.35;;;;;;;4.68;67.02;101557.91;5035738;28;20418;-39
2024/01/13 05:41:56;;;;;;;483.75;157.30;;;;;;;4.85;66.30;101557.56;5037494;28;20425;-38
2024/01/13 05:44:22;;;;;;;490.45;165.45;;;;;;;4.61;66.93;101555.47;5032767;28;20412;-39
2024/01/13 05:46:48;;;;;;;484.67;153.85;;;;;;;4.79;66.64;101551.63;5037860;28;20415;-39
2024/01/13 05:49:13;;;;;;;488.55;157.70;;;;;;;4.96;65.94;101543.44;5041817;28;20418;-40
2024/01/13 05:51:39;;;;;;;488.47;158.27;;;;;;;4.39;67.16;101545.44;5040050;28;20409;-39
2024/01/13 05:54:04;;;;;;;488.60;159.70;;;;;;;4.82;66.33;101543.72;5036187;28;21793;-39
2024/01/13 05:56:30;;;;;;;487.80;158.37;;;;;;;4.58;67.19;101540.72;5038444;28;20499;-39
2024/01/13 05:58:55;;;;;;;486.25;152.50;;;;;;;4.78;66.66;101545.53;5041686;28;20406;-39
2024/01/13 06:01:21;;;;;;;488.53;156.67;;;;;;;4.88;65.76;101536.63;5042559;28;20406;-40
2024/01/13 06:03:46;;;;;;;486.43;152.17;;;;;;;4.97;65.85;101534.72;5045396;28;20444;-38
2024/01/13 06:06:12;;;;;;;362.70;175.05;;;;;;;4.96;65.61;101533.88;5043045;28;20055;-39
2024/01/13 06:08:37;;;;;;;474.80;162.70;;;;;;;4.97;65.38;101526.88;5034241;28;20497;-39
2024/01/13 06:11:03;;;;;;;481.57;161.37;;;;;;;5.16;65.37;101524.72;5036269;28;20546;-39
2024/01/13 06:13:28;;;;;;;491.65;173.35;;;;;;;5.02;65.14;101519.81;5031352;28;20414;-39
2024/01/13 06:15:54;;;;;;;485.45;156.65;;;;;;;4.95;65.50;101518.22;5035202;28;20429;-39
2024/01/13 06:18:19;;;;;;;486.10;158.30;;;;;;;5.08;65.03;101513.63;5032960;28;20820;-39
2024/01/13 06:20:45;;;;;;;484.35;159.20;;;;;;;4.85;66.23;101508.00;5029154;28;20723;-40
2024/01/13 06:23:11;;;;;;;486.70;154.07;;;;;;;4.67;66.32;101504.06;5039432;28;20893;-40
2024/01/13 06:25:36;;;;;;;486.80;155.50;;;;;;;5.01;65.70;101497.25;5038868;28;20422;-39
2024/01/13 06:28:02;;;;;;;486.80;158.60;;;;;;;4.95;65.62;101494.75;5034317;28;20410;-40
2024/01/13 06:30:28;;;;;;;486.65;157.75;;;;;;;4.93;65.64;101496.53;5040242;28;20463;-39
2024/01/13 06:32:53;;;;;;;482.65;154.15;;;;;;;5.16;65.57;101486.47;5043365;28;20394;-39
2024/01/13 06:35:18;;;;;;;486.10;156.30;;;;;;;5.11;64.89;101490.91;5020913;28;20899;-39
2024/01/13 06:37:44;;;;;;;486.60;158.25;;;;;;;5.14;65.24;101501.28;5037255;28;20569;-39
2024/01/13 06:40:10;;;;;;;486.90;165.05;;;;;;;4.99;65.46;101484.22;5029217;28;20467;-39
2024/01/13 06:42:35;;;;;;;483.20;160.85;;;;;;;4.87;65.96;101482.75;5031854;28;20898;-38
2024/01/13 06:45:01;;;;;;;485.50;158.80;;;;;;;4.90;65.67;101473.16;5031374;28;20418;-39
2024/01/13 06:47:26;;;;;;;488.20;164.40;;;;;;;4.98;65.47;101469.50;5033586;28;20412;-40
2024/01/13 06:49:52;;;;;;;486.50;157.40;;;;;;;5.04;65.48;101460.66;5034292;28;20854;-39
2024/01/13 06:52:17;;;;;;;487.40;161.80;;;;;;;4.95;65.49;101448.69;5032152;28;20467;-39
2024/01/13 06:54:43;;;;;;;484.60;154.35;;;;;;;5.11;65.16;101454.38;5038023;28;20404;-39
2024/01/13 06:57:08;;;;;;;486.60;158.17;;;;;;;4.84;66.08;101443.72;5041555;28;20471;-39
2024/01/13 06:59:34;;;;;;;484.60;154.80;;;;;;;4.89;65.57;101446.19;5025768;28;20560;-39
2024/01/13 07:01:59;;;;;;;485.10;156.30;;;;;;;4.97;66.21;101446.03;5043513;28;20385;-39
2024/01/13 07:04:24;;;;;;;487.23;161.17;;;;;;;4.87;65.57;101441.03;5024389;28;20451;-40
2024/01/13 07:06:50;;;;;;;490.95;173.50;;;;;;;5.22;65.07;101440.25;5012330;28;20487;-39
2024/01/13 07:09:18;;;;;;;486.53;159.87;;;;;;;5.06;65.69;101430.19;5034407;28;20777;-39
2024/01/13 07:11:48;;;;;;;485.08;158.00;;;;;;;4.92;66.16;101429.63;5038371;28;20985;-39
2024/01/13 07:14:13;;;;;;;484.55;160.30;;;;;;;4.99;65.25;101423.38;5032785;28;20397;-39
2024/01/13 07:16:38;;;;;;;483.10;155.30;;;;;;;5.10;65.65;101428.34;5033095;28;20455;-39
2024/01/13 07:19:05;;;;;;;362.40;179.90;;;;;;;4.84;66.77;101428.06;5038492;28;20059;-39
2024/01/13 07:21:31;;;;;;;468.67;162.83;;;;;;;4.92;66.70;101427.88;5038744;28;20434;-39
2024/01/13 07:23:56;;;;;;;473.95;158.55;;;;;;;4.78;66.09;101428.19;5040233;28;20459;-39
2024/01/13 07:26:22;;;;;;;476.30;159.33;;;;;;;4.76;66.73;101431.72;5032856;28;20496;-39
2024/01/13 07:28:47;;;;;;;479.80;156.65;;;;;;;5.01;65.90;101429.41;5036083;28;20437;-39
2024/01/13 07:31:12;;;;;;;480.80;162.80;;;;;;;5.16;65.82;101425.56;5032872;28;20405;-39
2024/01/13 07:33:38;;;;;;;478.60;156.50;;;;;;;5.09;65.46;101426.63;5036684;28;20458;-39
2024/01/13 07:36:04;;;;;;;477.90;162.60;;;;;;;5.19;65.84;101428.13;5026786;28;20405;-40
2024/01/13 07:38:29;;;;;;;478.93;162.27;;;;;;;5.25;65.76;101419.28;5029349;28;20796;-39
2024/01/13 07:40:54;;;;;;;478.45;160.80;;;;;;;5.24;65.43;101425.38;5033588;28;20531;-39
2024/01/13 07:43:20;;;;;;;477.85;160.30;;;;;;;5.08;65.88;101417.09;5031845;28;20416;-39
2024/01/13 07:45:46;;;;;;;476.73;156.17;;;;;;;5.24;65.65;101417.56;5036525;28;20409;-39
2024/01/13 07:48:11;;;;;;;481.75;166.00;;;;;;;5.24;65.40;101407.13;5030387;28;20492;-39
2024/01/13 07:50:36;;;;;;;477.30;160.60;;;;;;;5.04;65.76;101417.16;5031681;28;20799;-39
2024/01/13 07:53:02;;;;;;;479.50;163.20;;;;;;;5.23;65.27;101405.41;5032804;28;20442;-40
2024/01/13 07:55:27;;;;;;;480.60;165.87;;;;;;;5.32;65.13;101402.59;5032191;28;20435;-40
2024/01/13 07:57:53;;;;;;;477.30;160.70;;;;;;;5.08;65.43;101399.69;5030942;28;20405;-39
2024/01/13 08:00:19;;;;;;;478.23;164.17;;;;;;;5.40;65.25;101408.47;5033978;28;20412;-39
2024/01/13 08:02:44;;;;;;;473.50;158.60;;;;;;;5.46;64.86;101397.88;5035200;28;20434;-40
2024/01/13 08:05:12;;;;;;;476.63;156.63;;;;;;;5.27;64.99;101396.63;5035783;28;20473;-39
2024/01/13 08:07:37;;;;;;;476.00;157.10;;;;;;;5.23;65.60;101393.22;5042402;28;20417;-39
2024/01/13 08:10:03;;;;;;;477.20;160.33;;;;;;;5.13;65.30;101394.38;5034401;28;20417;-39
2024/01/13 08:12:28;;;;;;;479.20;165.45;;;;;;;4.95;65.12;101395.66;5036433;28;20434;-39
2024/01/13 08:14:53;;;;;;;476.20;158.10;;;;;;;5.39;64.79;101380.63;5035961;28;20463;-40
2024/01/13 08:17:19;;;;;;;477.85;164.30;;;;;;;5.08;65.92;101376.19;5036309;28;20412;-39
2024/01/13 08:19:44;;;;;;;477.20;160.50;;;;;;;5.19;65.93;101373.31;5032482;28;20488;-39
2024/01/13 08:22:09;;;;;;;473.27;157.90;;;;;;;5.22;66.10;101368.03;5041740;28;20486;-39
2024/01/13 08:24:35;;;;;;;480.00;159.80;;;;;;;5.15;66.25;101362.13;5022016;28;20489;-39
2024/01/13 08:27:00;;;;;;;476.55;157.75;;;;;;;5.24;66.13;101360.16;5041018;28;20440;-39
2024/01/13 08:29:26;;;;;;;477.05;159.70;;;;;;;5.44;65.26;101370.94;5039746;28;21206;-40
2024/01/13 08:31:51;;;;;;;472.60;154.90;;;;;;;5.33;65.70;101352.09;5042221;28;20454;-39
2024/01/13 08:34:17;;;;;;;483.80;178.00;;;;;;;5.27;64.92;101354.88;5037169;28;20401;-39
2024/01/13 08:36:43;;;;;;;474.70;166.67;;;;;;;5.39;65.18;101349.31;5034844;28;20400;-39
2024/01/13 08:39:09;;;;;;;475.45;169.35;;;;;;;5.44;65.15;101337.00;5035624;28;20455;-39
2024/01/13 08:41:35;;;;;;;473.15;164.80;;;;;;;5.45;65.55;101338.72;5034426;28;20444;-39
2024/01/13 08:44:00;;;;;;;470.60;166.60;;;;;;;5.36;65.37;101333.78;5037822;28;20915;-40
2024/01/13 08:46:26;;;;;;;475.27;168.00;;;;;;;5.45;65.06;101336.13;5039915;28;20501;-39
2024/01/13 08:48:52;;;;;;;472.57;164.87;;;;;;;5.21;65.48;101334.16;5042142;28;20400;-39
2024/01/13 08:51:17;;;;;;;474.85;170.60;;;;;;;5.59;64.76;101335.75;5017359;28;20403;-39
2024/01/13 08:53:44;;;;;;;476.57;162.47;;;;;;;5.54;64.95;101331.53;5041525;28;20394;-40
2024/01/13 08:56:09;;;;;;;479.27;160.73;;;;;;;5.67;64.83;101332.06;5040602;28;20428;-40
2024/01/13 08:58:35;;;;;;;479.95;160.30;;;;;;;5.56;65.15;101335.84;5043333;28;20767;-40
2024/01/13 09:01:00;;;;;;;480.70;158.90;;;;;;;5.51;64.77;101326.44;5043856;28;20393;-39
2024/01/13 09:03:28;;;;;;;481.80;161.95;;;;;;;5.63;64.58;101328.69;5040046;28;20401;-39
2024/01/13 09:05:54;;;;;;;476.55;156.98;;;;;;;5.68;64.48;101318.13;5038580;28;20413;-39
2024/01/13 09:08:20;;;;;;;481.80;160.50;;;;;;;5.51;64.96;101306.38;5041473;28;20459;-39
2024/01/13 09:10:45;;;;;;;481.40;159.90;;;;;;;5.39;65.00;101309.34;5041342;28;20580;-39
2024/01/13 09:13:10;;;;;;;480.20;161.77;;;;;;;5.54;64.55;101310.66;5031989;28;20400;-39
2024/01/13 09:15:36;;;;;;;481.15;157.90;;;;;;;5.52;64.73;101307.25;5044681;28;20401;-39
2024/01/13 09:18:03;;;;;;;481.80;156.05;;;;;;;5.68;64.66;101310.28;5043099;28;20941;-40
2024/01/13 09:20:28;;;;;;;480.90;162.15;;;;;;;5.64;64.18;101306.91;5042999;28;20433;-40
2024/01/13 09:22:54;;;;;;;480.90;155.90;;;;;;;5.69;64.62;101310.22;5037800;28;20421;-39
2024/01/13 09:25:19;;;;;;;480.90;160.40;;;;;;;5.39;65.20;101304.13;5038749;28;20427;-39
2024/01/13 09:27:45;;;;;;;479.80;159.10;;;;;;;5.40;65.25;101290.16;5040345;28;20407;-39
2024/01/13 09:30:11;;;;;;;482.35;164.50;;;;;;;5.64;64.67;101286.88;5041986;28;20905;-39
2024/01/13 09:32:36;;;;;;;480.23;159.35;;;;;;;5.77;64.55;101305.66;5036678;28;20400;-39
2024/01/13 09:35:03;;;;;;;359.90;173.70;;;;;;;5.78;64.03;101296.94;5045110;28;20025;-40
2024/01/13 09:37:29;;;;;;;460.00;165.50;;;;;;;5.56;64.88;101308.84;5040261;28;20769;-39
2024/01/13 09:39:54;;;;;;;448.93;172.23;;;;;;;5.70;64.15;101300.66;5025475;28;20395;-39
2024/01/13 09:42:43;;;;;;;443.20;179.55;;;;;;;5.72;64.20;101298.84;5037305;28;21025;-39
2024/01/13 09:45:09;;;;;;;441.25;182.80;;;;;;;5.77;64.07;101292.59;5023404;28;20408;-40
2024/01/13 09:47:35;;;;;;;435.75;181.05;;;;;;;5.63;64.69;101289.53;5041695;28;20394;-40
2024/01/13 09:50:02;;;;;;;433.15;180.65;;;;;;;5.51;64.72;101289.88;5043219;28;20388;-39
2024/01/13 09:52:28;;;;;;;437.00;188.07;;;;;;;5.43;65.53;101279.66;5041074;28;20889;-39
2024/01/13 09:55:03;;;;;;;418.75;193.00;;;;;;;5.46;65.50;101282.16;5041681;28;20416;-39
2024/01/13 09:57:28;;;;;;;432.50;187.37;;;;;;;5.57;64.91;101280.13;5041544;28;20386;-40
2024/01/13 09:59:54;;;;;;;431.10;188.60;;;;;;;5.59;65.24;101269.63;5039759;28;20960;-39
2024/01/13 10:02:19;;;;;;;430.95;190.90;;;;;;;5.47;65.81;101263.84;5037025;28;20899;-40
2024/01/13 10:04:45;;;;;;;431.17;185.70;;;;;;;5.84;64.43;101254.09;5044201;28;20449;-41
2024/01/13 10:07:10;;;;;;;421.70;187.40;;;;;;;5.72;64.96;101257.91;5043644;28;20394;-40
2024/01/13 10:09:38;;;;;;;432.43;185.97;;;;;;;5.58;65.06;101249.63;5036114;28;20405;-40
2024/01/13 10:12:06;;;;;;;428.40;183.60;;;;;;;5.48;65.35;101238.59;5039426;28;20399;-39
2024/01/13 10:14:32;;;;;;;415.70;193.90;;;;;;;5.46;65.71;101238.66;5042251;28;20781;-41
2024/01/13 10:17:02;;;;;;;412.65;193.05;;;;;;;5.56;65.71;101226.19;5043687;28;20398;-39
2024/01/13 10:19:27;;;;;;;412.23;196.73;;;;;;;5.51;65.52;101219.41;5042736;28;20429;-39
2024/01/13 10:21:53;;;;;;;411.40;194.90;;;;;;;5.57;65.86;101207.03;5039587;28;21113;-40
2024/01/13 10:24:18;;;;;;;411.03;194.83;;;;;;;5.59;65.20;101201.75;5042731;28;20402;-39
2024/01/13 10:26:44;;;;;;;407.80;193.20;;;;;;;5.77;64.83;101180.31;5024438;28;21077;-40
2024/01/13 10:29:09;;;;;;;408.35;195.45;;;;;;;5.56;66.05;101178.34;5040496;28;20481;-41
2024/01/13 10:31:36;;;;;;;409.27;193.60;;;;;;;5.71;65.44;101167.44;5038728;28;20422;-41
2024/01/13 10:34:01;;;;;;;406.30;190.10;;;;;;;5.57;65.72;101167.00;5041170;28;20744;-39
2024/01/13 10:36:27;;;;;;;404.20;199.93;;;;;;;5.55;65.45;101167.03;5040619;28;25158;-39
2024/01/13 10:38:52;;;;;;;402.90;199.35;;;;;;;5.71;64.99;101158.75;5041411;28;20385;-39
2024/01/13 10:41:29;;;;;;;399.90;201.10;;;;;;;5.68;65.02;101162.28;5039591;28;20398;-39
2024/01/13 10:43:58;;;;;;;401.70;194.70;;;;;;;5.61;65.37;101171.22;5038713;28;25136;-39
2024/01/13 10:46:26;;;;;;;403.60;198.70;;;;;;;5.77;64.70;101161.16;5023366;28;20453;-39
2024/01/13 10:48:59;;;;;;;400.25;197.55;;;;;;;5.62;65.51;101157.28;5041098;28;20443;-39
2024/01/13 10:51:33;;;;;;;400.70;200.55;;;;;;;5.53;65.57;101154.91;5041512;28;25288;-39
2024/01/13 10:54:01;;;;;;;401.65;197.90;;;;;;;5.74;65.28;101143.84;5042001;28;20422;-40
2024/01/13 10:56:30;;;;;;;401.40;203.55;;;;;;;5.68;64.09;101143.16;5038533;28;20602;-39